sensor_id;sensor_type;location;lat;lon;timestamp;P1;durP1;ratioP1;P2;durP2;ratioP2
23250;SDS011;11794;49.730;10.088;2023-08-20T00:00:12;4.20;;;2.00;;
23250;SDS011;11794;49.730;10.088;2023-08-20T00:02:38;8.43;;;2.17;;
23250;SDS011;11794;49.730;10.088;2023-08-20T00:05:07;5.05;;;1.70;;
23250;SDS011;11794;49.730;10.088;2023-08-20T00:07:33;4.25;;;1.70;;
23250;SDS011;11794;49.730;10.088;2023-08-20T00:09:59;5.03;;;2.07;;
23250;SDS011;11794;49.730;10.088;2023-08-20T00:12:24;4.73;;;1.90;;
23250;SDS011;11794;49.730;10.088;2023-08-20T00:14:52;5.13;;;1.92;;
23250;SDS011;11794;49.730;10.088;2023-08-20T00:17:18;4.82;;;2.20;;
23250;SDS011;11794;49.730;10.088;2023-08-20T00:19:44;5.13;;;2.23;;
23250;SDS011;11794;49.730;10.088;2023-08-20T00:22:10;5.13;;;2.07;;
23250;SDS011;11794;49.730;10.088;2023-08-20T00:24:35;4.97;;;2.20;;
23250;SDS011;11794;49.730;10.088;2023-08-20T00:27:01;4.50;;;1.80;;
23250;SDS011;11794;49.730;10.088;2023-08-20T00:29:27;4.97;;;1.83;;
23250;SDS011;11794;49.730;10.088;2023-08-20T00:31:52;5.20;;;1.97;;
23250;SDS011;11794;49.730;10.088;2023-08-20T00:34:18;4.03;;;1.67;;
23250;SDS011;11794;49.730;10.088;2023-08-20T00:36:43;4.40;;;1.97;;
23250;SDS011;11794;49.730;10.088;2023-08-20T00:39:09;9.37;;;2.50;;
23250;SDS011;11794;49.730;10.088;2023-08-20T00:41:34;6.15;;;2.80;;
23250;SDS011;11794;49.730;10.088;2023-08-20T00:44:00;5.10;;;2.40;;
23250;SDS011;11794;49.730;10.088;2023-08-20T00:46:25;4.40;;;1.70;;
23250;SDS011;11794;49.730;10.088;2023-08-20T00:48:51;5.47;;;2.10;;
23250;SDS011;11794;49.730;10.088;2023-08-20T00:51:17;4.97;;;2.37;;
23250;SDS011;11794;49.730;10.088;2023-08-20T00:53:42;5.32;;;1.88;;
23250;SDS011;11794;49.730;10.088;2023-08-20T00:56:08;4.95;;;2.08;;
23250;SDS011;11794;49.730;10.088;2023-08-20T00:58:34;5.17;;;2.20;;
23250;SDS011;11794;49.730;10.088;2023-08-20T01:01:00;6.70;;;2.27;;
23250;SDS011;11794;49.730;10.088;2023-08-20T01:03:25;4.70;;;2.10;;
23250;SDS011;11794;49.730;10.088;2023-08-20T01:06:01;4.82;;;1.98;;
23250;SDS011;11794;49.730;10.088;2023-08-20T01:08:39;4.67;;;2.00;;
23250;SDS011;11794;49.730;10.088;2023-08-20T01:11:20;4.85;;;2.15;;
23250;SDS011;11794;49.730;10.088;2023-08-20T01:13:54;3.60;;;1.52;;
23250;SDS011;11794;49.730;10.088;2023-08-20T01:16:20;6.95;;;2.13;;
23250;SDS011;11794;49.730;10.088;2023-08-20T01:18:47;6.15;;;2.05;;
23250;SDS011;11794;49.730;10.088;2023-08-20T01:24:05;5.87;;;2.43;;
23250;SDS011;11794;49.730;10.088;2023-08-20T01:29:20;5.10;;;2.15;;
23250;SDS011;11794;49.730;10.088;2023-08-20T01:31:46;5.25;;;2.20;;
23250;SDS011;11794;49.730;10.088;2023-08-20T01:34:12;4.68;;;1.88;;
23250;SDS011;11794;49.730;10.088;2023-08-20T01:36:38;4.70;;;1.77;;
23250;SDS011;11794;49.730;10.088;2023-08-20T01:39:03;5.07;;;2.03;;
23250;SDS011;11794;49.730;10.088;2023-08-20T01:41:30;4.53;;;2.00;;
23250;SDS011;11794;49.730;10.088;2023-08-20T01:43:55;4.80;;;1.55;;
23250;SDS011;11794;49.730;10.088;2023-08-20T01:46:21;5.13;;;2.33;;
23250;SDS011;11794;49.730;10.088;2023-08-20T01:48:47;5.10;;;1.70;;
23250;SDS011;11794;49.730;10.088;2023-08-20T01:51:12;5.13;;;1.60;;
23250;SDS011;11794;49.730;10.088;2023-08-20T01:53:38;5.53;;;1.98;;
23250;SDS011;11794;49.730;10.088;2023-08-20T01:56:04;5.70;;;2.20;;
23250;SDS011;11794;49.730;10.088;2023-08-20T01:58:29;4.40;;;1.77;;
23250;SDS011;11794;49.730;10.088;2023-08-20T02:00:57;4.80;;;1.90;;
23250;SDS011;11794;49.730;10.088;2023-08-20T02:03:22;3.53;;;1.40;;
23250;SDS011;11794;49.730;10.088;2023-08-20T02:05:48;5.13;;;1.93;;
23250;SDS011;11794;49.730;10.088;2023-08-20T02:08:13;4.32;;;1.77;;
23250;SDS011;11794;49.730;10.088;2023-08-20T02:10:39;4.63;;;1.93;;
23250;SDS011;11794;49.730;10.088;2023-08-20T02:13:04;5.63;;;2.07;;
23250;SDS011;11794;49.730;10.088;2023-08-20T02:15:32;4.35;;;1.60;;
23250;SDS011;11794;49.730;10.088;2023-08-20T02:17:57;4.90;;;2.00;;
23250;SDS011;11794;49.730;10.088;2023-08-20T02:20:23;4.37;;;1.67;;
23250;SDS011;11794;49.730;10.088;2023-08-20T02:22:49;4.10;;;1.80;;
23250;SDS011;11794;49.730;10.088;2023-08-20T02:25:14;3.90;;;1.60;;
23250;SDS011;11794;49.730;10.088;2023-08-20T02:27:40;4.40;;;1.60;;
23250;SDS011;11794;49.730;10.088;2023-08-20T02:30:05;4.97;;;2.23;;
23250;SDS011;11794;49.730;10.088;2023-08-20T02:32:32;5.25;;;2.05;;
23250;SDS011;11794;49.730;10.088;2023-08-20T02:34:58;8.05;;;2.15;;
23250;SDS011;11794;49.730;10.088;2023-08-20T02:37:23;5.33;;;2.20;;
23250;SDS011;11794;49.730;10.088;2023-08-20T02:39:49;4.77;;;1.87;;
23250;SDS011;11794;49.730;10.088;2023-08-20T02:42:14;5.23;;;1.83;;
23250;SDS011;11794;49.730;10.088;2023-08-20T02:44:40;5.87;;;1.93;;
23250;SDS011;11794;49.730;10.088;2023-08-20T02:47:05;5.13;;;1.87;;
23250;SDS011;11794;49.730;10.088;2023-08-20T02:49:31;6.10;;;2.13;;
23250;SDS011;11794;49.730;10.088;2023-08-20T02:51:56;7.63;;;2.00;;
23250;SDS011;11794;49.730;10.088;2023-08-20T02:54:22;4.18;;;1.65;;
23250;SDS011;11794;49.730;10.088;2023-08-20T02:56:48;4.83;;;1.90;;
23250;SDS011;11794;49.730;10.088;2023-08-20T02:59:13;5.53;;;1.92;;
23250;SDS011;11794;49.730;10.088;2023-08-20T03:01:39;5.13;;;2.17;;
23250;SDS011;11794;49.730;10.088;2023-08-20T03:04:04;4.73;;;1.60;;
23250;SDS011;11794;49.730;10.088;2023-08-20T03:06:30;5.28;;;1.92;;
23250;SDS011;11794;49.730;10.088;2023-08-20T03:08:56;4.57;;;1.97;;
23250;SDS011;11794;49.730;10.088;2023-08-20T03:11:21;6.10;;;2.00;;
23250;SDS011;11794;49.730;10.088;2023-08-20T03:13:47;5.17;;;2.07;;
23250;SDS011;11794;49.730;10.088;2023-08-20T03:16:12;5.50;;;2.20;;
23250;SDS011;11794;49.730;10.088;2023-08-20T03:18:38;4.85;;;1.83;;
23250;SDS011;11794;49.730;10.088;2023-08-20T03:21:03;6.03;;;2.33;;
23250;SDS011;11794;49.730;10.088;2023-08-20T03:23:29;4.35;;;1.58;;
23250;SDS011;11794;49.730;10.088;2023-08-20T03:25:57;4.37;;;1.77;;
23250;SDS011;11794;49.730;10.088;2023-08-20T03:28:23;4.20;;;1.58;;
23250;SDS011;11794;49.730;10.088;2023-08-20T03:30:49;6.00;;;1.70;;
23250;SDS011;11794;49.730;10.088;2023-08-20T03:33:14;5.05;;;1.77;;
23250;SDS011;11794;49.730;10.088;2023-08-20T03:35:42;3.93;;;1.50;;
23250;SDS011;11794;49.730;10.088;2023-08-20T03:38:07;4.40;;;1.70;;
23250;SDS011;11794;49.730;10.088;2023-08-20T03:40:33;4.63;;;1.77;;
23250;SDS011;11794;49.730;10.088;2023-08-20T03:42:58;6.03;;;2.35;;
23250;SDS011;11794;49.730;10.088;2023-08-20T03:45:24;3.87;;;1.40;;
23250;SDS011;11794;49.730;10.088;2023-08-20T03:47:49;3.83;;;1.37;;
23250;SDS011;11794;49.730;10.088;2023-08-20T03:50:15;4.45;;;1.83;;
23250;SDS011;11794;49.730;10.088;2023-08-20T03:52:40;6.23;;;2.30;;
23250;SDS011;11794;49.730;10.088;2023-08-20T03:55:06;4.53;;;1.70;;
23250;SDS011;11794;49.730;10.088;2023-08-20T03:57:32;4.75;;;1.95;;
23250;SDS011;11794;49.730;10.088;2023-08-20T03:59:57;4.77;;;1.53;;
23250;SDS011;11794;49.730;10.088;2023-08-20T04:02:23;4.40;;;2.00;;
23250;SDS011;11794;49.730;10.088;2023-08-20T04:04:48;4.70;;;1.90;;
23250;SDS011;11794;49.730;10.088;2023-08-20T04:07:14;5.00;;;1.83;;
23250;SDS011;11794;49.730;10.088;2023-08-20T04:09:39;7.17;;;2.00;;
23250;SDS011;11794;49.730;10.088;2023-08-20T04:12:06;3.63;;;1.35;;
23250;SDS011;11794;49.730;10.088;2023-08-20T04:14:32;4.77;;;1.80;;
23250;SDS011;11794;49.730;10.088;2023-08-20T04:16:57;4.63;;;1.77;;
23250;SDS011;11794;49.730;10.088;2023-08-20T04:19:23;3.93;;;1.67;;
23250;SDS011;11794;49.730;10.088;2023-08-20T04:21:48;4.30;;;1.65;;
23250;SDS011;11794;49.730;10.088;2023-08-20T04:24:14;5.05;;;1.80;;
23250;SDS011;11794;49.730;10.088;2023-08-20T04:26:40;5.40;;;1.83;;
23250;SDS011;11794;49.730;10.088;2023-08-20T04:29:05;4.53;;;1.77;;
23250;SDS011;11794;49.730;10.088;2023-08-20T04:31:31;5.32;;;1.88;;
23250;SDS011;11794;49.730;10.088;2023-08-20T04:33:56;4.93;;;1.60;;
23250;SDS011;11794;49.730;10.088;2023-08-20T04:36:22;4.90;;;1.93;;
23250;SDS011;11794;49.730;10.088;2023-08-20T04:38:47;5.00;;;1.87;;
23250;SDS011;11794;49.730;10.088;2023-08-20T04:41:13;7.17;;;1.53;;
23250;SDS011;11794;49.730;10.088;2023-08-20T04:43:38;5.67;;;2.07;;
23250;SDS011;11794;49.730;10.088;2023-08-20T04:46:04;5.45;;;2.00;;
23250;SDS011;11794;49.730;10.088;2023-08-20T04:48:29;5.43;;;2.13;;
23250;SDS011;11794;49.730;10.088;2023-08-20T04:50:55;5.93;;;1.60;;
23250;SDS011;11794;49.730;10.088;2023-08-20T04:53:21;4.63;;;1.90;;
23250;SDS011;11794;49.730;10.088;2023-08-20T04:55:46;5.13;;;1.80;;
23250;SDS011;11794;49.730;10.088;2023-08-20T04:58:12;5.70;;;1.98;;
23250;SDS011;11794;49.730;10.088;2023-08-20T05:00:37;5.43;;;1.80;;
23250;SDS011;11794;49.730;10.088;2023-08-20T05:03:03;6.77;;;2.00;;
23250;SDS011;11794;49.730;10.088;2023-08-20T05:05:28;4.55;;;1.58;;
23250;SDS011;11794;49.730;10.088;2023-08-20T05:07:54;4.60;;;1.63;;
23250;SDS011;11794;49.730;10.088;2023-08-20T05:10:19;4.55;;;1.55;;
23250;SDS011;11794;49.730;10.088;2023-08-20T05:12:45;6.10;;;2.10;;
23250;SDS011;11794;49.730;10.088;2023-08-20T05:15:10;5.33;;;1.87;;
23250;SDS011;11794;49.730;10.088;2023-08-20T05:17:36;4.88;;;1.77;;
23250;SDS011;11794;49.730;10.088;2023-08-20T05:20:02;5.10;;;1.67;;
23250;SDS011;11794;49.730;10.088;2023-08-20T05:22:28;3.92;;;1.40;;
23250;SDS011;11794;49.730;10.088;2023-08-20T05:24:54;7.57;;;1.90;;
23250;SDS011;11794;49.730;10.088;2023-08-20T05:27:19;5.00;;;2.13;;
23250;SDS011;11794;49.730;10.088;2023-08-20T05:29:45;4.67;;;1.90;;
23250;SDS011;11794;49.730;10.088;2023-08-20T05:32:10;5.55;;;2.22;;
23250;SDS011;11794;49.730;10.088;2023-08-20T05:34:36;5.03;;;1.90;;
23250;SDS011;11794;49.730;10.088;2023-08-20T05:37:02;4.95;;;1.90;;
23250;SDS011;11794;49.730;10.088;2023-08-20T05:39:29;5.35;;;2.05;;
23250;SDS011;11794;49.730;10.088;2023-08-20T05:41:55;4.45;;;1.90;;
23250;SDS011;11794;49.730;10.088;2023-08-20T05:44:21;5.67;;;1.77;;
23250;SDS011;11794;49.730;10.088;2023-08-20T05:46:47;6.45;;;2.67;;
23250;SDS011;11794;49.730;10.088;2023-08-20T05:49:13;4.22;;;1.40;;
23250;SDS011;11794;49.730;10.088;2023-08-20T05:51:41;5.18;;;1.92;;
23250;SDS011;11794;49.730;10.088;2023-08-20T05:54:07;4.67;;;1.80;;
23250;SDS011;11794;49.730;10.088;2023-08-20T05:56:32;5.13;;;2.30;;
23250;SDS011;11794;49.730;10.088;2023-08-20T05:58:58;4.93;;;2.20;;
23250;SDS011;11794;49.730;10.088;2023-08-20T06:01:23;3.72;;;1.65;;
23250;SDS011;11794;49.730;10.088;2023-08-20T06:03:49;4.40;;;1.90;;
23250;SDS011;11794;49.730;10.088;2023-08-20T06:06:14;6.60;;;1.93;;
23250;SDS011;11794;49.730;10.088;2023-08-20T06:08:40;4.90;;;2.03;;
23250;SDS011;11794;49.730;10.088;2023-08-20T06:11:06;4.47;;;1.73;;
23250;SDS011;11794;49.730;10.088;2023-08-20T06:13:31;4.75;;;1.60;;
23250;SDS011;11794;49.730;10.088;2023-08-20T06:15:57;5.00;;;1.97;;
23250;SDS011;11794;49.730;10.088;2023-08-20T06:18:22;4.57;;;1.80;;
23250;SDS011;11794;49.730;10.088;2023-08-20T06:20:48;6.68;;;2.25;;
23250;SDS011;11794;49.730;10.088;2023-08-20T06:23:13;4.33;;;1.73;;
23250;SDS011;11794;49.730;10.088;2023-08-20T06:25:39;4.85;;;1.88;;
23250;SDS011;11794;49.730;10.088;2023-08-20T06:28:04;5.50;;;2.17;;
23250;SDS011;11794;49.730;10.088;2023-08-20T06:30:30;4.53;;;1.80;;
23250;SDS011;11794;49.730;10.088;2023-08-20T06:32:55;5.10;;;2.00;;
23250;SDS011;11794;49.730;10.088;2023-08-20T06:35:21;5.77;;;2.10;;
23250;SDS011;11794;49.730;10.088;2023-08-20T06:37:46;4.85;;;1.92;;
23250;SDS011;11794;49.730;10.088;2023-08-20T06:40:12;5.00;;;2.27;;
23250;SDS011;11794;49.730;10.088;2023-08-20T06:42:38;4.50;;;1.73;;
23250;SDS011;11794;49.730;10.088;2023-08-20T06:45:04;5.23;;;2.23;;
23250;SDS011;11794;49.730;10.088;2023-08-20T06:47:30;4.20;;;1.73;;
23250;SDS011;11794;49.730;10.088;2023-08-20T06:49:56;5.13;;;2.23;;
23250;SDS011;11794;49.730;10.088;2023-08-20T06:52:21;4.80;;;1.98;;
23250;SDS011;11794;49.730;10.088;2023-08-20T06:54:47;4.60;;;1.67;;
23250;SDS011;11794;49.730;10.088;2023-08-20T06:57:12;5.40;;;2.67;;
23250;SDS011;11794;49.730;10.088;2023-08-20T06:59:38;5.18;;;2.08;;
23250;SDS011;11794;49.730;10.088;2023-08-20T07:02:03;4.40;;;1.87;;
23250;SDS011;11794;49.730;10.088;2023-08-20T07:04:29;5.33;;;2.07;;
23250;SDS011;11794;49.730;10.088;2023-08-20T07:06:54;3.80;;;1.60;;
23250;SDS011;11794;49.730;10.088;2023-08-20T07:09:20;6.17;;;2.10;;
23250;SDS011;11794;49.730;10.088;2023-08-20T07:11:45;5.03;;;2.03;;
23250;SDS011;11794;49.730;10.088;2023-08-20T07:14:11;4.83;;;2.10;;
23250;SDS011;11794;49.730;10.088;2023-08-20T07:16:37;4.97;;;2.00;;
23250;SDS011;11794;49.730;10.088;2023-08-20T07:19:02;4.13;;;1.57;;
23250;SDS011;11794;49.730;10.088;2023-08-20T07:21:28;4.40;;;2.03;;
23250;SDS011;11794;49.730;10.088;2023-08-20T07:23:53;4.38;;;2.05;;
23250;SDS011;11794;49.730;10.088;2023-08-20T07:26:19;6.63;;;2.07;;
23250;SDS011;11794;49.730;10.088;2023-08-20T07:28:45;4.68;;;1.80;;
23250;SDS011;11794;49.730;10.088;2023-08-20T07:31:26;4.93;;;2.10;;
23250;SDS011;11794;49.730;10.088;2023-08-20T07:33:53;5.32;;;2.10;;
23250;SDS011;11794;49.730;10.088;2023-08-20T07:36:20;5.20;;;2.20;;
23250;SDS011;11794;49.730;10.088;2023-08-20T07:38:49;13.63;;;2.40;;
23250;SDS011;11794;49.730;10.088;2023-08-20T07:41:16;4.07;;;1.60;;
23250;SDS011;11794;49.730;10.088;2023-08-20T07:43:42;3.80;;;1.83;;
23250;SDS011;11794;49.730;10.088;2023-08-20T07:46:08;5.32;;;1.70;;
23250;SDS011;11794;49.730;10.088;2023-08-20T07:48:35;3.88;;;1.70;;
23250;SDS011;11794;49.730;10.088;2023-08-20T07:51:01;5.35;;;1.95;;
23250;SDS011;11794;49.730;10.088;2023-08-20T07:53:27;5.63;;;2.33;;
23250;SDS011;11794;49.730;10.088;2023-08-20T07:55:53;4.85;;;2.10;;
23250;SDS011;11794;49.730;10.088;2023-08-20T07:58:19;4.88;;;2.47;;
23250;SDS011;11794;49.730;10.088;2023-08-20T08:00:45;4.70;;;2.37;;
23250;SDS011;11794;49.730;10.088;2023-08-20T08:03:10;4.43;;;2.43;;
23250;SDS011;11794;49.730;10.088;2023-08-20T08:05:36;4.60;;;2.13;;
23250;SDS011;11794;49.730;10.088;2023-08-20T08:08:02;4.50;;;2.03;;
23250;SDS011;11794;49.730;10.088;2023-08-20T08:10:28;5.68;;;2.92;;
23250;SDS011;11794;49.730;10.088;2023-08-20T08:12:54;4.30;;;2.05;;
23250;SDS011;11794;49.730;10.088;2023-08-20T08:15:20;5.20;;;2.63;;
23250;SDS011;11794;49.730;10.088;2023-08-20T08:17:45;4.60;;;2.20;;
23250;SDS011;11794;49.730;10.088;2023-08-20T08:20:11;4.72;;;2.03;;
23250;SDS011;11794;49.730;10.088;2023-08-20T08:22:37;5.47;;;2.40;;
23250;SDS011;11794;49.730;10.088;2023-08-20T08:25:02;5.68;;;2.40;;
23250;SDS011;11794;49.730;10.088;2023-08-20T08:27:28;6.83;;;2.60;;
23250;SDS011;11794;49.730;10.088;2023-08-20T08:29:53;5.90;;;2.83;;
23250;SDS011;11794;49.730;10.088;2023-08-20T08:32:19;4.83;;;2.33;;
23250;SDS011;11794;49.730;10.088;2023-08-20T08:34:45;5.22;;;2.30;;
23250;SDS011;11794;49.730;10.088;2023-08-20T08:37:10;6.10;;;2.73;;
23250;SDS011;11794;49.730;10.088;2023-08-20T08:39:36;4.40;;;2.43;;
23250;SDS011;11794;49.730;10.088;2023-08-20T08:42:02;4.70;;;2.55;;
23250;SDS011;11794;49.730;10.088;2023-08-20T08:44:32;5.00;;;2.55;;
23250;SDS011;11794;49.730;10.088;2023-08-20T08:46:58;7.60;;;3.08;;
23250;SDS011;11794;49.730;10.088;2023-08-20T08:49:25;5.35;;;2.50;;
23250;SDS011;11794;49.730;10.088;2023-08-20T08:51:51;5.70;;;2.97;;
23250;SDS011;11794;49.730;10.088;2023-08-20T08:54:18;5.07;;;2.97;;
23250;SDS011;11794;49.730;10.088;2023-08-20T08:56:45;7.57;;;2.95;;
23250;SDS011;11794;49.730;10.088;2023-08-20T08:59:10;5.35;;;2.42;;
23250;SDS011;11794;49.730;10.088;2023-08-20T09:01:39;5.30;;;2.67;;
23250;SDS011;11794;49.730;10.088;2023-08-20T09:04:06;4.93;;;2.70;;
23250;SDS011;11794;49.730;10.088;2023-08-20T09:06:48;5.18;;;2.65;;
23250;SDS011;11794;49.730;10.088;2023-08-20T09:09:16;6.13;;;3.20;;
23250;SDS011;11794;49.730;10.088;2023-08-20T09:11:42;5.45;;;2.97;;
23250;SDS011;11794;49.730;10.088;2023-08-20T09:14:08;5.60;;;2.90;;
23250;SDS011;11794;49.730;10.088;2023-08-20T09:16:45;5.88;;;2.85;;
23250;SDS011;11794;49.730;10.088;2023-08-20T09:19:12;5.10;;;2.70;;
23250;SDS011;11794;49.730;10.088;2023-08-20T09:21:37;5.23;;;2.97;;
23250;SDS011;11794;49.730;10.088;2023-08-20T09:24:03;4.75;;;2.55;;
23250;SDS011;11794;49.730;10.088;2023-08-20T09:26:28;6.93;;;3.07;;
23250;SDS011;11794;49.730;10.088;2023-08-20T09:28:54;5.40;;;3.05;;
23250;SDS011;11794;49.730;10.088;2023-08-20T09:31:36;5.88;;;3.20;;
23250;SDS011;11794;49.730;10.088;2023-08-20T09:34:03;5.63;;;3.03;;
23250;SDS011;11794;49.730;10.088;2023-08-20T09:36:30;5.70;;;3.33;;
23250;SDS011;11794;49.730;10.088;2023-08-20T09:38:57;5.70;;;3.00;;
23250;SDS011;11794;49.730;10.088;2023-08-20T09:41:25;5.10;;;3.00;;
23250;SDS011;11794;49.730;10.088;2023-08-20T09:43:54;5.20;;;2.95;;
23250;SDS011;11794;49.730;10.088;2023-08-20T09:46:23;4.80;;;2.80;;
23250;SDS011;11794;49.730;10.088;2023-08-20T09:48:50;5.80;;;3.55;;
23250;SDS011;11794;49.730;10.088;2023-08-20T09:51:19;5.70;;;2.85;;
23250;SDS011;11794;49.730;10.088;2023-08-20T09:53:53;6.05;;;3.90;;
23250;SDS011;11794;49.730;10.088;2023-08-20T09:56:28;6.00;;;3.40;;
23250;SDS011;11794;49.730;10.088;2023-08-20T09:58:55;6.07;;;3.97;;
23250;SDS011;11794;49.730;10.088;2023-08-20T10:01:23;5.83;;;3.27;;
23250;SDS011;11794;49.730;10.088;2023-08-20T10:03:49;5.33;;;3.00;;
23250;SDS011;11794;49.730;10.088;2023-08-20T10:06:15;5.07;;;2.97;;
23250;SDS011;11794;49.730;10.088;2023-08-20T10:08:41;5.53;;;3.50;;
23250;SDS011;11794;49.730;10.088;2023-08-20T10:11:07;5.17;;;3.10;;
23250;SDS011;11794;49.730;10.088;2023-08-20T10:13:32;5.10;;;3.17;;
23250;SDS011;11794;49.730;10.088;2023-08-20T10:15:58;6.20;;;3.40;;
23250;SDS011;11794;49.730;10.088;2023-08-20T10:18:24;5.47;;;3.55;;
23250;SDS011;11794;49.730;10.088;2023-08-20T10:20:51;5.35;;;3.28;;
23250;SDS011;11794;49.730;10.088;2023-08-20T10:23:21;5.18;;;3.30;;
23250;SDS011;11794;49.730;10.088;2023-08-20T10:25:50;6.60;;;3.85;;
23250;SDS011;11794;49.730;10.088;2023-08-20T10:28:26;5.38;;;3.30;;
23250;SDS011;11794;49.730;10.088;2023-08-20T10:31:06;6.13;;;4.03;;
23250;SDS011;11794;49.730;10.088;2023-08-20T10:33:57;6.47;;;3.47;;
23250;SDS011;11794;49.730;10.088;2023-08-20T10:36:23;5.75;;;3.80;;
23250;SDS011;11794;49.730;10.088;2023-08-20T10:38:56;5.10;;;3.40;;
23250;SDS011;11794;49.730;10.088;2023-08-20T10:41:26;6.95;;;4.03;;
23250;SDS011;11794;49.730;10.088;2023-08-20T10:43:54;5.90;;;3.75;;
23250;SDS011;11794;49.730;10.088;2023-08-20T10:46:23;6.07;;;3.88;;
23250;SDS011;11794;49.730;10.088;2023-08-20T10:48:51;4.85;;;3.28;;
23250;SDS011;11794;49.730;10.088;2023-08-20T10:51:33;5.75;;;4.18;;
23250;SDS011;11794;49.730;10.088;2023-08-20T10:54:11;6.03;;;3.78;;
23250;SDS011;11794;49.730;10.088;2023-08-20T10:56:41;6.43;;;4.40;;
23250;SDS011;11794;49.730;10.088;2023-08-20T10:59:15;5.20;;;3.57;;
23250;SDS011;11794;49.730;10.088;2023-08-20T11:01:48;5.47;;;3.75;;
23250;SDS011;11794;49.730;10.088;2023-08-20T11:04:15;5.88;;;3.58;;
23250;SDS011;11794;49.730;10.088;2023-08-20T11:06:42;5.60;;;4.03;;
23250;SDS011;11794;49.730;10.088;2023-08-20T11:09:09;5.78;;;3.88;;
23250;SDS011;11794;49.730;10.088;2023-08-20T11:11:36;5.25;;;3.88;;
23250;SDS011;11794;49.730;10.088;2023-08-20T11:14:04;5.18;;;3.55;;
23250;SDS011;11794;49.730;10.088;2023-08-20T11:16:32;5.75;;;4.50;;
23250;SDS011;11794;49.730;10.088;2023-08-20T11:18:57;6.23;;;4.30;;
23250;SDS011;11794;49.730;10.088;2023-08-20T11:21:23;6.28;;;4.38;;
23250;SDS011;11794;49.730;10.088;2023-08-20T11:23:48;6.40;;;4.20;;
23250;SDS011;11794;49.730;10.088;2023-08-20T11:26:14;5.85;;;4.15;;
23250;SDS011;11794;49.730;10.088;2023-08-20T11:28:44;6.53;;;4.00;;
23250;SDS011;11794;49.730;10.088;2023-08-20T11:31:11;6.03;;;4.15;;
23250;SDS011;11794;49.730;10.088;2023-08-20T11:33:37;5.90;;;4.20;;
23250;SDS011;11794;49.730;10.088;2023-08-20T11:36:03;5.10;;;3.83;;
23250;SDS011;11794;49.730;10.088;2023-08-20T11:38:32;6.63;;;5.15;;
23250;SDS011;11794;49.730;10.088;2023-08-20T11:40:57;6.17;;;4.57;;
23250;SDS011;11794;49.730;10.088;2023-08-20T11:43:25;5.60;;;4.22;;
23250;SDS011;11794;49.730;10.088;2023-08-20T11:45:55;7.20;;;4.72;;
23250;SDS011;11794;49.730;10.088;2023-08-20T11:48:21;5.88;;;4.05;;
23250;SDS011;11794;49.730;10.088;2023-08-20T11:50:47;6.00;;;4.15;;
23250;SDS011;11794;49.730;10.088;2023-08-20T11:53:14;5.72;;;4.18;;
23250;SDS011;11794;49.730;10.088;2023-08-20T11:55:40;7.03;;;5.10;;
23250;SDS011;11794;49.730;10.088;2023-08-20T11:58:09;5.75;;;4.85;;
23250;SDS011;11794;49.730;10.088;2023-08-20T12:00:36;6.43;;;4.70;;
23250;SDS011;11794;49.730;10.088;2023-08-20T12:03:02;5.40;;;3.90;;
23250;SDS011;11794;49.730;10.088;2023-08-20T12:05:29;6.25;;;4.40;;
23250;SDS011;11794;49.730;10.088;2023-08-20T12:07:57;5.80;;;4.20;;
23250;SDS011;11794;49.730;10.088;2023-08-20T12:10:24;6.18;;;4.50;;
23250;SDS011;11794;49.730;10.088;2023-08-20T12:12:50;5.80;;;4.53;;
23250;SDS011;11794;49.730;10.088;2023-08-20T12:15:17;5.80;;;4.90;;
23250;SDS011;11794;49.730;10.088;2023-08-20T12:17:44;5.53;;;4.53;;
23250;SDS011;11794;49.730;10.088;2023-08-20T12:20:29;6.63;;;4.57;;
23250;SDS011;11794;49.730;10.088;2023-08-20T12:22:59;5.65;;;4.75;;
23250;SDS011;11794;49.730;10.088;2023-08-20T12:25:27;5.75;;;4.68;;
23250;SDS011;11794;49.730;10.088;2023-08-20T12:27:54;5.63;;;4.97;;
23250;SDS011;11794;49.730;10.088;2023-08-20T12:30:21;6.10;;;4.30;;
23250;SDS011;11794;49.730;10.088;2023-08-20T12:32:46;5.97;;;4.57;;
23250;SDS011;11794;49.730;10.088;2023-08-20T12:35:12;5.72;;;4.90;;
23250;SDS011;11794;49.730;10.088;2023-08-20T12:37:38;5.40;;;4.40;;
23250;SDS011;11794;49.730;10.088;2023-08-20T12:40:04;5.77;;;4.37;;
23250;SDS011;11794;49.730;10.088;2023-08-20T12:42:33;5.45;;;4.55;;
23250;SDS011;11794;49.730;10.088;2023-08-20T12:44:58;5.67;;;4.77;;
23250;SDS011;11794;49.730;10.088;2023-08-20T12:47:24;6.18;;;5.57;;
23250;SDS011;11794;49.730;10.088;2023-08-20T12:49:49;5.20;;;4.30;;
23250;SDS011;11794;49.730;10.088;2023-08-20T12:52:15;6.13;;;4.70;;
23250;SDS011;11794;49.730;10.088;2023-08-20T12:54:41;6.18;;;5.57;;
23250;SDS011;11794;49.730;10.088;2023-08-20T12:57:06;7.30;;;5.70;;
23250;SDS011;11794;49.730;10.088;2023-08-20T12:59:32;6.40;;;5.22;;
23250;SDS011;11794;49.730;10.088;2023-08-20T13:01:57;5.87;;;5.10;;
23250;SDS011;11794;49.730;10.088;2023-08-20T13:04:23;5.20;;;4.30;;
23250;SDS011;11794;49.730;10.088;2023-08-20T13:06:49;5.95;;;5.35;;
23250;SDS011;11794;49.730;10.088;2023-08-20T13:09:15;5.97;;;4.67;;
23250;SDS011;11794;49.730;10.088;2023-08-20T13:11:41;6.28;;;4.40;;
23250;SDS011;11794;49.730;10.088;2023-08-20T13:14:09;9.68;;;5.22;;
23250;SDS011;11794;49.730;10.088;2023-08-20T13:16:35;5.60;;;4.20;;
23250;SDS011;11794;49.730;10.088;2023-08-20T13:19:01;6.25;;;4.63;;
23250;SDS011;11794;49.730;10.088;2023-08-20T13:21:27;7.55;;;5.03;;
23250;SDS011;11794;49.730;10.088;2023-08-20T13:23:53;5.47;;;4.60;;
23250;SDS011;11794;49.730;10.088;2023-08-20T13:26:18;5.35;;;4.47;;
23250;SDS011;11794;49.730;10.088;2023-08-20T13:28:47;6.50;;;4.82;;
23250;SDS011;11794;49.730;10.088;2023-08-20T13:31:12;7.10;;;5.93;;
23250;SDS011;11794;49.730;10.088;2023-08-20T13:33:39;5.70;;;5.07;;
23250;SDS011;11794;49.730;10.088;2023-08-20T13:36:05;5.70;;;5.07;;
23250;SDS011;11794;49.730;10.088;2023-08-20T13:38:32;6.38;;;5.78;;
23250;SDS011;11794;49.730;10.088;2023-08-20T13:40:57;7.97;;;5.23;;
23250;SDS011;11794;49.730;10.088;2023-08-20T13:43:23;6.93;;;6.22;;
23250;SDS011;11794;49.730;10.088;2023-08-20T13:45:48;7.30;;;5.90;;
23250;SDS011;11794;49.730;10.088;2023-08-20T13:48:14;6.83;;;6.17;;
23250;SDS011;11794;49.730;10.088;2023-08-20T13:50:39;6.10;;;5.50;;
23250;SDS011;11794;49.730;10.088;2023-08-20T13:53:05;7.47;;;6.53;;
23250;SDS011;11794;49.730;10.088;2023-08-20T13:55:30;6.17;;;5.57;;
23250;SDS011;11794;49.730;10.088;2023-08-20T13:57:56;7.07;;;5.23;;
23250;SDS011;11794;49.730;10.088;2023-08-20T14:00:22;6.00;;;5.40;;
23250;SDS011;11794;49.730;10.088;2023-08-20T14:02:47;6.50;;;5.80;;
23250;SDS011;11794;49.730;10.088;2023-08-20T14:05:14;6.20;;;5.60;;
23250;SDS011;11794;49.730;10.088;2023-08-20T14:07:39;5.33;;;4.83;;
23250;SDS011;11794;49.730;10.088;2023-08-20T14:10:06;5.72;;;5.03;;
23250;SDS011;11794;49.730;10.088;2023-08-20T14:12:33;5.70;;;4.80;;
23250;SDS011;11794;49.730;10.088;2023-08-20T14:14:59;5.30;;;4.50;;
23250;SDS011;11794;49.730;10.088;2023-08-20T14:17:24;5.57;;;4.70;;
23250;SDS011;11794;49.730;10.088;2023-08-20T14:19:50;6.00;;;4.60;;
23250;SDS011;11794;49.730;10.088;2023-08-20T14:22:15;5.90;;;5.30;;
23250;SDS011;11794;49.730;10.088;2023-08-20T14:24:41;6.85;;;4.50;;
23250;SDS011;11794;49.730;10.088;2023-08-20T14:27:07;6.07;;;5.40;;
23250;SDS011;11794;49.730;10.088;2023-08-20T14:29:32;5.63;;;4.70;;
23250;SDS011;11794;49.730;10.088;2023-08-20T14:31:58;5.17;;;4.13;;
23250;SDS011;11794;49.730;10.088;2023-08-20T14:34:23;5.28;;;4.18;;